Time;durP1;ratioP1;P1;durP2;ratioP2;P2;SDS_P1;SDS_P2;PMS_P1;PMS_P2;Temp;Humidity;BMP_temperature;BMP_pressure;BME280_temperature;BME280_humidity;BME280_pressure;Samples;Min_cycle;Max_cycle;Signal;HPM_P1;HPM_P2
2022/03/28 00:00:43;;;;;;;8.55;3.13;;;;;;;;;;5049418;28;20134;-63
2022/03/28 00:03:10;;;;;;;10.70;3.85;;;;;;;;;;5050877;28;20115;-61
2022/03/28 00:05:37;;;;;;;12.00;3.58;;;;;;;;;;5069482;28;20078;-62
2022/03/28 00:08:04;;;;;;;8.80;3.60;;;;;;;;;;5051559;28;20037;-61
2022/03/28 00:10:30;;;;;;;11.55;4.00;;;;;;;;;;5068496;28;20490;-62
2022/03/28 00:12:56;;;;;;;6.93;3.22;;;;;;;;;;5067898;28;20111;-62
2022/03/28 00:15:22;;;;;;;8.65;3.55;;;;;;;;;;5067568;28;20537;-64
2022/03/28 00:17:48;;;;;;;11.10;3.53;;;;;;;;;;5083573;28;20052;-65
2022/03/28 00:20:14;;;;;;;10.32;3.47;;;;;;;;;;5066792;28;20032;-64
2022/03/28 00:22:41;;;;;;;12.27;3.38;;;;;;;;;;5066565;28;20062;-63
2022/03/28 00:25:08;;;;;;;5.78;2.40;;;;;;;;;;5066237;28;20045;-63
2022/03/28 00:27:34;;;;;;;8.32;2.53;;;;;;;;;;5065583;28;20155;-63
2022/03/28 00:30:00;;;;;;;6.35;2.80;;;;;;;;;;5066355;28;20124;-62
2022/03/28 00:32:26;;;;;;;6.78;3.05;;;;;;;;;;5066447;28;20040;-63
2022/03/28 00:34:53;;;;;;;8.13;3.20;;;;;;;;;;5049494;28;20037;-63
2022/03/28 00:37:19;;;;;;;6.88;4.22;;;;;;;;;;5066687;28;20032;-63
2022/03/28 00:39:45;;;;;;;12.38;4.97;;;;;;;;;;5066756;28;20402;-64
2022/03/28 00:42:12;;;;;;;10.63;5.82;;;;;;;;;;5066202;28;20044;-65
2022/03/28 00:44:39;;;;;;;11.40;5.60;;;;;;;;;;5081961;28;20105;-62
2022/03/28 00:47:05;;;;;;;7.65;6.18;;;;;;;;;;5066363;28;20052;-64
2022/03/28 00:49:32;;;;;;;9.38;5.72;;;;;;;;;;5066273;28;20060;-63
2022/03/28 00:51:58;;;;;;;8.52;5.63;;;;;;;;;;5063635;28;20032;-62
2022/03/28 00:54:24;;;;;;;9.95;5.60;;;;;;;;;;5066146;28;20036;-63
2022/03/28 00:56:50;;;;;;;7.35;5.80;;;;;;;;;;5081532;28;20040;-65
2022/03/28 00:59:17;;;;;;;10.80;7.05;;;;;;;;;;5065047;28;20055;-63
2022/03/28 01:01:46;;;;;;;9.32;6.63;;;;;;;;;;5064750;28;20048;-64
2022/03/28 01:04:13;;;;;;;12.57;7.28;;;;;;;;;;5046416;28;20041;-64
2022/03/28 01:06:39;;;;;;;7.93;4.30;;;;;;;;;;5064690;28;20044;-63
2022/03/28 01:09:06;;;;;;;3.80;2.65;;;;;;;;;;5063759;28;20046;-63
2022/03/28 01:11:33;;;;;;;6.85;3.20;;;;;;;;;;5065931;28;20072;-63
2022/03/28 01:13:59;;;;;;;6.55;3.60;;;;;;;;;;5066699;28;20085;-63
2022/03/28 01:16:29;;;;;;;7.63;4.57;;;;;;;;;;5066640;28;20029;-64
2022/03/28 01:18:55;;;;;;;11.07;6.20;;;;;;;;;;5064925;28;20469;-63
2022/03/28 01:21:21;;;;;;;11.98;6.22;;;;;;;;;;5064464;28;20139;-64
2022/03/28 01:23:47;;;;;;;12.68;6.65;;;;;;;;;;5064776;28;20379;-64
2022/03/28 01:26:16;;;;;;;6.75;4.82;;;;;;;;;;5065388;28;20029;-63
2022/03/28 01:28:42;;;;;;;9.02;4.13;;;;;;;;;;5064959;28;20044;-63
2022/03/28 01:31:08;;;;;;;7.25;4.40;;;;;;;;;;5066169;28;20094;-62
2022/03/28 01:33:35;;;;;;;3.28;2.70;;;;;;;;;;5064760;28;20036;-64
2022/03/28 01:36:01;;;;;;;3.65;2.30;;;;;;;;;;5063709;28;20372;-63
2022/03/28 01:38:27;;;;;;;3.60;1.50;;;;;;;;;;5045915;28;20660;-64
2022/03/28 01:40:54;;;;;;;2.22;1.85;;;;;;;;;;5065177;28;20067;-63
2022/03/28 01:43:20;;;;;;;1.73;1.20;;;;;;;;;;5067418;28;20072;-65
2022/03/28 01:45:47;;;;;;;2.95;1.40;;;;;;;;;;5051778;28;20037;-62
2022/03/28 01:48:13;;;;;;;3.03;1.90;;;;;;;;;;5068577;28;20119;-62
2022/03/28 01:50:40;;;;;;;5.68;2.10;;;;;;;;;;5068912;28;20486;-63
2022/03/28 01:53:06;;;;;;;10.25;3.10;;;;;;;;;;5069244;28;20479;-63
2022/03/28 01:55:33;;;;;;;5.80;3.05;;;;;;;;;;5069845;28;20044;-63
2022/03/28 01:57:59;;;;;;;23.45;3.33;;;;;;;;;;5052213;28;20048;-64
2022/03/28 02:00:26;;;;;;;10.35;3.90;;;;;;;;;;5068851;28;20037;-63
2022/03/28 02:02:52;;;;;;;10.68;4.10;;;;;;;;;;5067993;28;20045;-64
2022/03/28 02:05:18;;;;;;;2.65;1.63;;;;;;;;;;5069222;28;20499;-64
2022/03/28 02:07:46;;;;;;;2.47;0.77;;;;;;;;;;5069544;28;20044;-64
2022/03/28 02:10:14;;;;;;;1.20;0.60;;;;;;;;;;5071590;28;20068;-64
2022/03/28 02:12:40;;;;;;;2.70;0.40;;;;;;;;;;5070536;28;20398;-64
2022/03/28 02:15:07;;;;;;;1.42;0.20;;;;;;;;;;5067612;28;20127;-64
2022/03/28 02:17:37;;;;;;;0.43;0.20;;;;;;;;;;5087056;28;20086;-64
2022/03/28 02:20:05;;;;;;;0.95;0.30;;;;;;;;;;5070731;28;20090;-65
2022/03/28 02:22:32;;;;;;;0.52;0.20;;;;;;;;;;5068970;28;20063;-63
2022/03/28 02:24:58;;;;;;;1.00;0.20;;;;;;;;;;5086611;28;20029;-64
2022/03/28 02:27:24;;;;;;;0.68;0.30;;;;;;;;;;5069269;28;20044;-63
2022/03/28 02:29:50;;;;;;;0.70;0.40;;;;;;;;;;5069548;28;20044;-64
2022/03/28 02:32:16;;;;;;;1.83;0.50;;;;;;;;;;5067049;28;20033;-64
2022/03/28 02:34:42;;;;;;;1.05;0.95;;;;;;;;;;5069784;28;20123;-61
2022/03/28 02:37:09;;;;;;;0.50;0.30;;;;;;;;;;5070322;28;20064;-63
2022/03/28 02:39:35;;;;;;;1.95;0.90;;;;;;;;;;5071226;28;20040;-63
2022/03/28 02:42:02;;;;;;;2.33;1.70;;;;;;;;;;5071305;28;20410;-62
2022/03/28 02:44:29;;;;;;;1.75;0.82;;;;;;;;;;5069400;28;20147;-62
2022/03/28 02:46:55;;;;;;;2.80;1.52;;;;;;;;;;5052228;28;20101;-63
2022/03/28 02:49:21;;;;;;;3.05;1.67;;;;;;;;;;5069183;28;20047;-62
2022/03/28 02:51:48;;;;;;;2.53;2.05;;;;;;;;;;5069678;28;20122;-61
2022/03/28 02:54:16;;;;;;;4.90;3.38;;;;;;;;;;5068839;28;20482;-61
2022/03/28 02:56:43;;;;;;;23.20;5.25;;;;;;;;;;5052879;28;20090;-61
2022/03/28 02:59:09;;;;;;;4.68;3.28;;;;;;;;;;5068723;28;20046;-62
2022/03/28 03:01:35;;;;;;;5.25;2.78;;;;;;;;;;5068916;28;20040;-62
2022/03/28 03:04:01;;;;;;;6.10;3.08;;;;;;;;;;5070382;28;20094;-62
2022/03/28 03:06:27;;;;;;;2.90;2.70;;;;;;;;;;5070245;28;20119;-62
2022/03/28 03:08:53;;;;;;;2.72;2.15;;;;;;;;;;5066908;28;20040;-62
2022/03/28 03:11:19;;;;;;;2.45;1.83;;;;;;;;;;5066974;28;20516;-62
2022/03/28 03:13:48;;;;;;;4.43;2.75;;;;;;;;;;5067192;28;20028;-63
2022/03/28 03:16:14;;;;;;;2.13;1.60;;;;;;;;;;5083459;28;20048;-63
2022/03/28 03:18:40;;;;;;;1.60;1.50;;;;;;;;;;5066892;28;20097;-64
2022/03/28 03:21:06;;;;;;;1.60;1.23;;;;;;;;;;5067060;28;20032;-62
2022/03/28 03:23:32;;;;;;;2.63;1.40;;;;;;;;;;5068281;28;20040;-63
2022/03/28 03:25:58;;;;;;;2.75;1.70;;;;;;;;;;5066567;28;20439;-64
2022/03/28 03:28:25;;;;;;;1.90;1.80;;;;;;;;;;5051546;28;20052;-62
2022/03/28 03:30:51;;;;;;;4.22;3.83;;;;;;;;;;5066564;28;20040;-64
2022/03/28 03:33:17;;;;;;;4.03;3.53;;;;;;;;;;5069625;28;20028;-64
2022/03/28 03:35:44;;;;;;;7.53;5.00;;;;;;;;;;5084692;28;20394;-65
2022/03/28 03:38:10;;;;;;;6.28;5.07;;;;;;;;;;5066852;28;20109;-65
2022/03/28 03:40:36;;;;;;;5.80;5.30;;;;;;;;;;5068714;28;20075;-64
2022/03/28 03:43:02;;;;;;;6.95;5.88;;;;;;;;;;5065863;28;20057;-63
2022/03/28 03:45:28;;;;;;;7.10;6.13;;;;;;;;;;5067628;28;20263;-64
2022/03/28 03:47:54;;;;;;;6.47;5.57;;;;;;;;;;5065950;28;20311;-63
2022/03/28 03:50:20;;;;;;;7.28;6.57;;;;;;;;;;5065583;28;20063;-62
2022/03/28 03:52:47;;;;;;;8.95;7.47;;;;;;;;;;5066269;28;20037;-63
2022/03/28 03:55:14;;;;;;;8.38;6.00;;;;;;;;;;5049671;28;20245;-61
2022/03/28 03:57:40;;;;;;;4.28;3.15;;;;;;;;;;5065725;28;20041;-64
2022/03/28 04:00:07;;;;;;;3.95;2.88;;;;;;;;;;5066310;28;20475;-62
2022/03/28 04:02:33;;;;;;;5.07;3.10;;;;;;;;;;5066535;28;20090;-63
2022/03/28 04:04:59;;;;;;;5.65;3.80;;;;;;;;;;5066065;28;20379;-63
2022/03/28 04:07:25;;;;;;;8.68;5.57;;;;;;;;;;5064968;28;20105;-63
2022/03/28 04:09:51;;;;;;;6.30;5.47;;;;;;;;;;5065532;28;20564;-63
2022/03/28 04:12:17;;;;;;;10.23;6.88;;;;;;;;;;5064491;28;20127;-62
2022/03/28 04:14:43;;;;;;;9.27;5.22;;;;;;;;;;5047067;28;20037;-62
2022/03/28 04:17:09;;;;;;;4.85;3.90;;;;;;;;;;5066720;28;20044;-64
2022/03/28 04:19:36;;;;;;;4.65;3.60;;;;;;;;;;5065223;28;20051;-64
2022/03/28 04:22:02;;;;;;;4.28;2.10;;;;;;;;;;5066295;28;20123;-64
2022/03/28 04:24:28;;;;;;;6.55;2.90;;;;;;;;;;5066588;28;20041;-62
2022/03/28 04:26:54;;;;;;;6.00;3.33;;;;;;;;;;5064800;28;20037;-63
2022/03/28 04:29:20;;;;;;;5.25;3.85;;;;;;;;;;5067104;28;20055;-63
2022/03/28 04:31:46;;;;;;;4.80;2.75;;;;;;;;;;5065076;28;20055;-64
2022/03/28 04:34:12;;;;;;;5.28;2.80;;;;;;;;;;5048899;28;20044;-64
2022/03/28 04:36:39;;;;;;;2.83;2.63;;;;;;;;;;5066243;28;20559;-63
2022/03/28 04:39:05;;;;;;;4.47;2.53;;;;;;;;;;5083510;28;20307;-65
2022/03/28 04:41:32;;;;;;;2.75;1.55;;;;;;;;;;5055164;28;20131;-63
2022/03/28 04:43:58;;;;;;;5.32;2.80;;;;;;;;;;5065879;28;20084;-62
2022/03/28 04:46:24;;;;;;;3.97;2.33;;;;;;;;;;5047822;28;20278;-63
2022/03/28 04:48:51;;;;;;;5.53;3.00;;;;;;;;;;5064878;28;20053;-64
2022/03/28 04:51:17;;;;;;;5.78;3.17;;;;;;;;;;5066214;28;20461;-63
2022/03/28 04:53:43;;;;;;;2.30;2.10;;;;;;;;;;5066595;28;20036;-62
2022/03/28 04:56:09;;;;;;;3.05;2.00;;;;;;;;;;5064491;28;20033;-64
2022/03/28 04:58:35;;;;;;;3.30;1.48;;;;;;;;;;5065879;28;20044;-63
2022/03/28 05:01:01;;;;;;;5.32;2.40;;;;;;;;;;5049332;28;20091;-64
2022/03/28 05:03:27;;;;;;;3.13;2.15;;;;;;;;;;5065685;28;20036;-62
2022/03/28 05:05:53;;;;;;;3.95;2.42;;;;;;;;;;5064970;28;20123;-63
2022/03/28 05:08:19;;;;;;;4.72;3.08;;;;;;;;;;5048623;28;20041;-63
2022/03/28 05:10:46;;;;;;;5.03;3.63;;;;;;;;;;5065989;28;20041;-62
2022/03/28 05:13:12;;;;;;;4.68;4.28;;;;;;;;;;5065811;28;20040;-63
2022/03/28 05:15:39;;;;;;;5.43;4.18;;;;;;;;;;5066677;28;20043;-63
2022/03/28 05:18:05;;;;;;;4.43;4.00;;;;;;;;;;5063464;28;20090;-64
2022/03/28 05:20:31;;;;;;;5.65;5.03;;;;;;;;;;5065223;28;20123;-64
2022/03/28 05:22:57;;;;;;;5.53;5.03;;;;;;;;;;5064318;28;20119;-63
2022/03/28 05:25:23;;;;;;;4.03;3.60;;;;;;;;;;5067447;28;20494;-64
2022/03/28 05:27:49;;;;;;;3.85;3.33;;;;;;;;;;5068027;28;20148;-61
2022/03/28 05:30:17;;;;;;;4.00;3.60;;;;;;;;;;5069467;28;20082;-62
2022/03/28 05:32:43;;;;;;;4.38;3.17;;;;;;;;;;5068171;28;20032;-61
2022/03/28 05:35:10;;;;;;;3.17;2.88;;;;;;;;;;5065703;28;20040;-62
2022/03/28 05:37:36;;;;;;;5.35;3.72;;;;;;;;;;5064577;28;20037;-63
2022/03/28 05:40:03;;;;;;;5.65;3.75;;;;;;;;;;5067489;28;20397;-64
2022/03/28 05:42:29;;;;;;;5.20;3.92;;;;;;;;;;5048456;28;20057;-64
2022/03/28 05:44:55;;;;;;;9.32;8.05;;;;;;;;;;5066432;28;20049;-64
2022/03/28 05:47:22;;;;;;;13.45;10.90;;;;;;;;;;5066670;28;20402;-64
2022/03/28 05:49:48;;;;;;;14.25;11.05;;;;;;;;;;5049768;28;20109;-65
2022/03/28 05:52:14;;;;;;;15.13;11.27;;;;;;;;;;5066110;28;20076;-65
2022/03/28 05:54:40;;;;;;;13.65;10.20;;;;;;;;;;5033576;28;20120;-64
2022/03/28 05:57:06;;;;;;;11.13;8.85;;;;;;;;;;5066380;28;20032;-64
2022/03/28 05:59:33;;;;;;;11.30;9.00;;;;;;;;;;5066934;28;20350;-62
2022/03/28 06:01:59;;;;;;;10.50;8.55;;;;;;;;;;5064751;28;20094;-61
2022/03/28 06:04:25;;;;;;;12.10;9.77;;;;;;;;;;5067059;28;20040;-61
2022/03/28 06:06:51;;;;;;;11.75;9.73;;;;;;;;;;5048957;28;20383;-61
2022/03/28 06:09:18;;;;;;;12.75;10.40;;;;;;;;;;5066641;28;20097;-62
2022/03/28 06:11:44;;;;;;;10.52;9.45;;;;;;;;;;5067173;28;20112;-62
2022/03/28 06:14:10;;;;;;;11.57;9.80;;;;;;;;;;5068125;28;20482;-63
2022/03/28 06:16:36;;;;;;;11.00;9.63;;;;;;;;;;5065501;28;20049;-63
2022/03/28 06:19:03;;;;;;;14.82;12.13;;;;;;;;;;5064867;28;20076;-63
2022/03/28 06:21:30;;;;;;;12.48;10.80;;;;;;;;;;5047757;28;20036;-62
2022/03/28 06:23:57;;;;;;;14.88;11.63;;;;;;;;;;5063013;28;20061;-63
2022/03/28 06:26:24;;;;;;;14.80;11.18;;;;;;;;;;5065188;28;20044;-63
2022/03/28 06:28:50;;;;;;;17.30;11.77;;;;;;;;;;5065926;28;20048;-65
2022/03/28 06:31:16;;;;;;;13.65;10.02;;;;;;;;;;5067804;28;20037;-63
2022/03/28 06:33:42;;;;;;;15.27;10.77;;;;;;;;;;5067933;28;20394;-64
2022/03/28 06:36:08;;;;;;;15.38;12.10;;;;;;;;;;5068445;28;20127;-64
2022/03/28 06:38:34;;;;;;;16.98;12.07;;;;;;;;;;5059479;28;20056;-65
2022/03/28 06:41:00;;;;;;;14.45;12.18;;;;;;;;;;5069515;28;20033;-64
2022/03/28 06:43:26;;;;;;;14.82;11.88;;;;;;;;;;5069678;28;20429;-62
2022/03/28 06:45:52;;;;;;;17.83;12.20;;;;;;;;;;5070632;28;20047;-62
2022/03/28 06:48:19;;;;;;;14.55;11.98;;;;;;;;;;5070688;28;20047;-62
2022/03/28 06:50:45;;;;;;;14.45;12.18;;;;;;;;;;5089148;28;20401;-63
2022/03/28 06:53:12;;;;;;;12.48;10.95;;;;;;;;;;5069045;28;20498;-64
2022/03/28 06:55:38;;;;;;;17.23;11.80;;;;;;;;;;5068889;28;20052;-63
2022/03/28 06:58:04;;;;;;;17.42;13.43;;;;;;;;;;5066392;28;20040;-64
2022/03/28 07:00:31;;;;;;;16.73;12.73;;;;;;;;;;5066445;28;20068;-63
2022/03/28 07:02:57;;;;;;;16.77;13.75;;;;;;;;;;5069088;28;20036;-62
2022/03/28 07:05:23;;;;;;;21.92;16.10;;;;;;;;;;5070579;28;20040;-63
2022/03/28 07:07:50;;;;;;;19.58;15.15;;;;;;;;;;5068415;28;20109;-63
2022/03/28 07:10:17;;;;;;;16.55;14.82;;;;;;;;;;5067223;28;20075;-63
2022/03/28 07:12:43;;;;;;;16.98;14.93;;;;;;;;;;5070327;28;20036;-63
2022/03/28 07:15:10;;;;;;;17.30;15.55;;;;;;;;;;5070088;28;20036;-62
2022/03/28 07:17:46;;;;;;;18.08;15.98;;;;;;;;;;5068386;28;20040;-63
2022/03/28 07:20:12;;;;;;;19.77;14.95;;;;;;;;;;5067354;28;20072;-63
2022/03/28 07:22:39;;;;;;;20.85;15.85;;;;;;;;;;5050941;28;20037;-63
2022/03/28 07:25:05;;;;;;;19.67;15.32;;;;;;;;;;5065753;28;20036;-64
2022/03/28 07:27:36;;;;;;;15.38;13.77;;;;;;;;;;5066714;28;20052;-64
2022/03/28 07:30:02;;;;;;;19.17;15.80;;;;;;;;;;5067936;28;20075;-64
2022/03/28 07:32:28;;;;;;;18.77;16.13;;;;;;;;;;5069884;28;20499;-62
2022/03/28 07:34:54;;;;;;;19.10;15.25;;;;;;;;;;5051734;28;20080;-61
2022/03/28 07:37:21;;;;;;;20.10;15.07;;;;;;;;;;5068237;28;20120;-62
2022/03/28 07:39:47;;;;;;;19.50;15.70;;;;;;;;;;5067738;28;20048;-64
2022/03/28 07:42:13;;;;;;;20.05;15.18;;;;;;;;;;5083086;28;21392;-64
2022/03/28 07:44:41;;;;;;;16.88;15.10;;;;;;;;;;5048437;28;20086;-63
2022/03/28 07:47:08;;;;;;;16.00;14.23;;;;;;;;;;5067231;28;20054;-64
2022/03/28 07:49:35;;;;;;;21.17;14.88;;;;;;;;;;5049371;28;20818;-65
2022/03/28 07:52:02;;;;;;;18.38;14.85;;;;;;;;;;5069375;28;20048;-63
2022/03/28 07:54:29;;;;;;;15.85;13.60;;;;;;;;;;5069506;28;20060;-62
2022/03/28 07:56:55;;;;;;;14.00;12.48;;;;;;;;;;5070909;28;20524;-63
2022/03/28 07:59:23;;;;;;;12.88;10.60;;;;;;;;;;5067489;28;20049;-64
2022/03/28 08:01:51;;;;;;;14.70;11.32;;;;;;;;;;5068044;28;20051;-62
2022/03/28 08:04:17;;;;;;;15.20;11.98;;;;;;;;;;5084603;28;20513;-63
2022/03/28 08:06:43;;;;;;;12.95;11.63;;;;;;;;;;5066496;28;20131;-63
2022/03/28 08:09:09;;;;;;;15.32;11.88;;;;;;;;;;5065211;28;20053;-64
2022/03/28 08:11:36;;;;;;;13.13;11.52;;;;;;;;;;5064777;28;20045;-63
2022/03/28 08:14:04;;;;;;;11.88;10.57;;;;;;;;;;5047222;28;20119;-63
2022/03/28 08:16:31;;;;;;;12.15;10.93;;;;;;;;;;5058038;28;21373;-62
2022/03/28 08:18:58;;;;;;;12.25;9.38;;;;;;;;;;5064593;28;20064;-62
2022/03/28 08:21:25;;;;;;;11.80;10.50;;;;;;;;;;5066276;28;20517;-63
2022/03/28 08:23:51;;;;;;;11.93;10.25;;;;;;;;;;5065166;28;20055;-63
2022/03/28 08:26:17;;;;;;;15.82;10.23;;;;;;;;;;5064237;28;20864;-63
2022/03/28 08:28:44;;;;;;;11.70;9.77;;;;;;;;;;5047594;28;20048;-64
2022/03/28 08:31:10;;;;;;;12.35;9.65;;;;;;;;;;5064121;28;20076;-63
2022/03/28 08:33:36;;;;;;;12.27;9.68;;;;;;;;;;5065116;28;20044;-63
2022/03/28 08:36:03;;;;;;;12.38;9.90;;;;;;;;;;5064863;28;20083;-63
2022/03/28 08:38:31;;;;;;;10.18;8.90;;;;;;;;;;5065570;28;20053;-63
2022/03/28 08:41:00;;;;;;;11.70;9.30;;;;;;;;;;5067846;28;20048;-62
2022/03/28 08:43:26;;;;;;;13.10;10.35;;;;;;;;;;5083350;28;20060;-65
2022/03/28 08:45:56;;;;;;;12.85;10.68;;;;;;;;;;5067513;28;20494;-63
2022/03/28 08:48:22;;;;;;;11.48;9.23;;;;;;;;;;5067223;28;20040;-63
2022/03/28 08:50:51;;;;;;;11.63;9.65;;;;;;;;;;5065903;28;20082;-63
2022/03/28 08:53:18;;;;;;;14.63;10.88;;;;;;;;;;5062115;28;20036;-62
2022/03/28 08:55:45;;;;;;;11.35;10.18;;;;;;;;;;5063732;28;20032;-63
2022/03/28 08:58:11;;;;;;;10.93;9.02;;;;;;;;;;5066001;28;20572;-62
2022/03/28 09:00:38;;;;;;;11.15;9.38;;;;;;;;;;5067292;28;20036;-64
2022/03/28 09:03:04;;;;;;;15.55;9.82;;;;;;;;;;5064495;28;20449;-63
2022/03/28 09:05:32;;;;;;;14.20;10.50;;;;;;;;;;5067486;28;20033;-62
2022/03/28 09:07:58;;;;;;;11.65;9.07;;;;;;;;;;5066432;28;20068;-63
2022/03/28 09:10:27;;;;;;;11.60;10.40;;;;;;;;;;5066401;28;20039;-63
2022/03/28 09:13:04;;;;;;;10.35;9.00;;;;;;;;;;5066692;28;20044;-64
2022/03/28 09:15:49;;;;;;;11.93;9.48;;;;;;;;;;5066176;28;20064;-62
2022/03/28 09:18:20;;;;;;;10.73;9.63;;;;;;;;;;5066844;28;20461;-64
2022/03/28 09:20:50;;;;;;;10.38;9.13;;;;;;;;;;5068007;28;20048;-63
2022/03/28 09:23:31;;;;;;;11.68;9.45;;;;;;;;;;5062086;28;20092;-64
2022/03/28 09:25:58;;;;;;;11.65;9.82;;;;;;;;;;5066633;28;20044;-64
2022/03/28 09:28:50;;;;;;;9.98;8.68;;;;;;;;;;5066145;28;20126;-63
2022/03/28 09:31:16;;;;;;;11.25;10.00;;;;;;;;;;5077351;28;20057;-63
2022/03/28 09:33:50;;;;;;;10.80;8.15;;;;;;;;;;5067648;28;20041;-64
2022/03/28 09:36:16;;;;;;;12.43;7.82;;;;;;;;;;5066199;28;20072;-64
2022/03/28 09:38:55;;;;;;;8.25;6.05;;;;;;;;;;5067721;28;20047;-64
2022/03/28 09:41:23;;;;;;;11.35;6.63;;;;;;;;;;5066087;28;20036;-62
2022/03/28 09:43:54;;;;;;;9.25;5.85;;;;;;;;;;5064576;28;20613;-63
2022/03/28 09:46:27;;;;;;;10.57;6.45;;;;;;;;;;5067786;28;20049;-64
2022/03/28 09:48:53;;;;;;;;;;;;;;;;;;5068076;28;20123;-63
2022/03/28 09:51:21;;;;;;;10.57;8.27;;;;;;;;;;5067637;28;19916;-64
2022/03/28 09:53:48;;;;;;;13.02;8.85;;;;;;;;;;5065761;28;20052;-64
2022/03/28 09:56:14;;;;;;;13.23;9.10;;;;;;;;;;5066062;28;20082;-63
2022/03/28 09:58:43;;;;;;;12.82;8.32;;;;;;;;;;5049429;28;20088;-63
2022/03/28 10:01:26;;;;;;;13.10;7.18;;;;;;;;;;5066356;28;20437;-64
2022/03/28 10:03:54;;;;;;;8.85;6.97;;;;;;;;;;5067008;28;20128;-63
2022/03/28 10:06:20;;;;;;;9.85;7.28;;;;;;;;;;5069128;28;20047;-64
2022/03/28 10:08:47;;;;;;;12.43;7.50;;;;;;;;;;5053504;28;20044;-62
2022/03/28 10:11:14;;;;;;;12.35;9.60;;;;;;;;;;5070238;28;20037;-62
2022/03/28 10:13:40;;;;;;;14.13;10.52;;;;;;;;;;5069406;28;20039;-64
2022/03/28 10:16:07;;;;;;;11.23;9.80;;;;;;;;;;5072078;28;20032;-61
2022/03/28 10:18:37;;;;;;;14.25;9.77;;;;;;;;;;5070843;28;20060;-61
2022/03/28 10:21:05;;;;;;;12.43;8.57;;;;;;;;;;5072901;28;20036;-62
2022/03/28 10:23:52;;;;;;;9.68;7.57;;;;;;;;;;5070131;28;20517;-61
2022/03/28 10:26:20;;;;;;;13.48;9.85;;;;;;;;;;5071852;28;20076;-61
2022/03/28 10:29:05;;;;;;;10.35;7.95;;;;;;;;;;5070414;28;20132;-64
2022/03/28 10:31:33;;;;;;;11.02;8.75;;;;;;;;;;5071196;28;20055;-61
2022/03/28 10:34:00;;;;;;;10.95;8.00;;;;;;;;;;5051833;28;20103;-61
2022/03/28 10:36:34;;;;;;;11.70;8.35;;;;;;;;;;5070781;28;20431;-63
2022/03/28 10:39:19;;;;;;;12.25;7.43;;;;;;;;;;5069261;28;20127;-64
2022/03/28 10:41:45;;;;;;;12.27;9.13;;;;;;;;;;5068487;28;20120;-63
2022/03/28 10:44:11;;;;;;;8.23;5.90;;;;;;;;;;5068085;28;20528;-63
2022/03/28 10:46:37;;;;;;;11.60;7.47;;;;;;;;;;5068297;28;20041;-63
2022/03/28 10:49:06;;;;;;;10.95;6.00;;;;;;;;;;5069594;28;20036;-64
2022/03/28 10:51:32;;;;;;;8.93;6.10;;;;;;;;;;5050742;28;20054;-63
2022/03/28 10:54:09;;;;;;;10.23;7.03;;;;;;;;;;5068962;28;20330;-62
2022/03/28 10:56:40;;;;;;;10.55;8.00;;;;;;;;;;5051552;28;20079;-64
2022/03/28 10:59:11;;;;;;;9.32;8.10;;;;;;;;;;5068908;28;20043;-63
2022/03/28 11:01:44;;;;;;;10.68;7.53;;;;;;;;;;5069027;28;20053;-63
2022/03/28 11:04:11;;;;;;;;;;;;;;;;;;5069465;28;20047;-63
2022/03/28 11:06:46;;;;;;;11.57;9.68;;;;;;;;;;5070405;28;19916;-64
2022/03/28 11:09:12;;;;;;;11.20;9.68;;;;;;;;;;5051833;28;20048;-63
2022/03/28 11:11:58;;;;;;;12.18;10.02;;;;;;;;;;5070088;28;20036;-63
2022/03/28 11:14:42;;;;;;;11.75;10.05;;;;;;;;;;5069374;28;20047;-64
2022/03/28 11:17:19;;;;;;;13.13;11.30;;;;;;;;;;5067047;28;20098;-63
2022/03/28 11:19:58;;;;;;;14.98;12.50;;;;;;;;;;5068451;28;20044;-62
2022/03/28 11:22:45;;;;;;;14.15;12.65;;;;;;;;;;5068850;28;20083;-62
2022/03/28 11:25:30;;;;;;;13.70;12.02;;;;;;;;;;5068729;28;20053;-64
2022/03/28 11:28:05;;;;;;;13.35;11.85;;;;;;;;;;5051219;28;20356;-62
2022/03/28 11:30:31;;;;;;;13.90;12.32;;;;;;;;;;5068323;28;20086;-63
2022/03/28 11:32:58;;;;;;;14.65;11.82;;;;;;;;;;5050815;28;20662;-63
2022/03/28 11:35:24;;;;;;;16.92;13.93;;;;;;;;;;5051713;28;20044;-64
2022/03/28 11:37:50;;;;;;;16.70;14.63;;;;;;;;;;5051419;28;20040;-62
2022/03/28 11:40:17;;;;;;;16.13;14.43;;;;;;;;;;5051706;28;20028;-63
2022/03/28 11:42:49;;;;;;;13.98;12.55;;;;;;;;;;5069209;28;20064;-63
2022/03/28 11:45:18;;;;;;;15.15;13.25;;;;;;;;;;5048883;28;20041;-63
2022/03/28 11:47:52;;;;;;;18.38;14.85;;;;;;;;;;5069374;28;20043;-63
2022/03/28 11:50:18;;;;;;;15.40;13.57;;;;;;;;;;5068208;28;20098;-63
2022/03/28 11:52:50;;;;;;;17.15;15.00;;;;;;;;;;5068239;28;20432;-63
2022/03/28 11:55:22;;;;;;;16.83;15.02;;;;;;;;;;5067536;28;20052;-64
2022/03/28 12:00:34;;;;;;;20.25;15.73;;;;;;;;;;5068392;28;20051;-61
2022/03/28 12:03:01;;;;;;;17.38;15.60;;;;;;;;;;5052005;28;20417;-62
2022/03/28 12:05:27;;;;;;;18.40;16.45;;;;;;;;;;5068903;28;20036;-63
2022/03/28 12:07:53;;;;;;;18.58;14.57;;;;;;;;;;5070062;28;20036;-62
2022/03/28 12:10:23;;;;;;;16.85;13.98;;;;;;;;;;5070285;28;20060;-62
2022/03/28 12:12:49;;;;;;;16.88;14.00;;;;;;;;;;5069252;28;20040;-62
2022/03/28 12:15:23;;;;;;;18.48;15.15;;;;;;;;;;5068644;28;20047;-62
2022/03/28 12:17:53;;;;;;;15.90;14.30;;;;;;;;;;5070005;28;20028;-64
2022/03/28 12:20:22;;;;;;;14.75;13.23;;;;;;;;;;5069634;28;20056;-62
2022/03/28 12:22:50;;;;;;;18.48;13.27;;;;;;;;;;5070330;28;20079;-62
2022/03/28 12:25:42;;;;;;;15.88;13.60;;;;;;;;;;5048296;28;20056;-62
2022/03/28 12:28:08;;;;;;;17.95;13.48;;;;;;;;;;5047478;28;20061;-62
2022/03/28 12:30:35;;;;;;;17.35;12.73;;;;;;;;;;5070693;28;20046;-62
2022/03/28 12:33:08;;;;;;;13.60;11.15;;;;;;;;;;5053106;28;20490;-61
2022/03/28 12:35:35;;;;;;;16.17;11.23;;;;;;;;;;5050537;28;20045;-63
2022/03/28 12:38:04;;;;;;;13.70;10.80;;;;;;;;;;5046598;28;20051;-62
2022/03/28 12:40:31;;;;;;;15.10;10.70;;;;;;;;;;5069239;28;20055;-62
2022/03/28 12:42:59;;;;;;;13.95;10.20;;;;;;;;;;5067427;28;20048;-62
2022/03/28 12:45:26;;;;;;;12.38;10.48;;;;;;;;;;5069503;28;20041;-62
2022/03/28 12:47:56;;;;;;;12.38;9.00;;;;;;;;;;5069355;28;20082;-62
2022/03/28 12:50:26;;;;;;;10.48;8.40;;;;;;;;;;5051554;28;20033;-63
2022/03/28 12:52:54;;;;;;;13.45;9.02;;;;;;;;;;5064618;28;20033;-64
2022/03/28 12:55:27;;;;;;;13.43;8.82;;;;;;;;;;5066074;28;20045;-64
2022/03/28 12:57:55;;;;;;;11.13;8.02;;;;;;;;;;5051090;28;20059;-66
2022/03/28 13:00:25;;;;;;;12.52;8.25;;;;;;;;;;5065773;28;20045;-63
2022/03/28 13:02:53;;;;;;;12.55;8.45;;;;;;;;;;5066297;28;20071;-63
2022/03/28 13:05:19;;;;;;;11.02;7.85;;;;;;;;;;5066456;28;20116;-65
2022/03/28 13:07:47;;;;;;;10.50;8.50;;;;;;;;;;5066355;28;20044;-64
2022/03/28 13:10:20;;;;;;;11.65;9.10;;;;;;;;;;5062880;28;20444;-65
2022/03/28 13:12:47;;;;;;;11.60;8.65;;;;;;;;;;5065536;28;20037;-63
2022/03/28 13:15:21;;;;;;;9.43;8.48;;;;;;;;;;5066193;28;20051;-63
2022/03/28 13:17:51;;;;;;;9.75;8.68;;;;;;;;;;5063299;28;20122;-62
2022/03/28 13:20:25;;;;;;;12.55;9.07;;;;;;;;;;5066592;28;20650;-64
2022/03/28 13:22:51;;;;;;;12.15;9.15;;;;;;;;;;5049950;28;20048;-64
2022/03/28 13:25:20;;;;;;;10.43;9.32;;;;;;;;;;5066127;28;20086;-64
2022/03/28 13:28:04;;;;;;;10.98;8.52;;;;;;;;;;5067161;28;20425;-64
2022/03/28 13:30:51;;;;;;;12.93;9.18;;;;;;;;;;5067268;28;20044;-64
2022/03/28 13:33:18;;;;;;;10.98;9.50;;;;;;;;;;5069116;28;20036;-64
2022/03/28 13:35:45;;;;;;;12.25;9.80;;;;;;;;;;5068399;28;20044;-63
2022/03/28 13:38:13;;;;;;;14.25;10.20;;;;;;;;;;5068572;28;20397;-64
2022/03/28 13:40:40;;;;;;;12.32;9.95;;;;;;;;;;5073009;28;20052;-63
2022/03/28 13:43:06;;;;;;;11.27;10.07;;;;;;;;;;5070871;28;20052;-64
2022/03/28 13:45:33;;;;;;;10.43;9.32;;;;;;;;;;5071075;28;20110;-64
2022/03/28 13:48:02;;;;;;;11.55;9.45;;;;;;;;;;5058832;28;20037;-64
2022/03/28 13:50:30;;;;;;;12.52;9.38;;;;;;;;;;5071614;28;20040;-64
2022/03/28 13:52:56;;;;;;;11.85;9.82;;;;;;;;;;5072533;28;20068;-64
2022/03/28 13:55:23;;;;;;;11.10;9.45;;;;;;;;;;5072091;28;20032;-62
2022/03/28 13:57:49;;;;;;;11.10;9.15;;;;;;;;;;5072763;28;20036;-62
2022/03/28 14:00:15;;;;;;;9.63;8.73;;;;;;;;;;5071902;28;20041;-62
2022/03/28 14:02:41;;;;;;;11.32;9.02;;;;;;;;;;5071321;28;20170;-62
2022/03/28 14:05:07;;;;;;;10.65;9.02;;;;;;;;;;5079282;28;20029;-63
2022/03/28 14:07:34;;;;;;;12.65;9.38;;;;;;;;;;5076592;28;20041;-62
2022/03/28 14:10:00;;;;;;;14.32;10.10;;;;;;;;;;5069639;28;20473;-63
2022/03/28 14:12:27;;;;;;;13.82;10.20;;;;;;;;;;5072592;28;20028;-62
2022/03/28 14:14:53;;;;;;;14.27;10.60;;;;;;;;;;5072104;28;20048;-61
2022/03/28 14:17:19;;;;;;;11.93;9.63;;;;;;;;;;5055896;28;20097;-62
2022/03/28 14:19:45;;;;;;;11.82;10.30;;;;;;;;;;5071356;28;20545;-61
2022/03/28 14:22:12;;;;;;;15.82;11.32;;;;;;;;;;5054932;28;20116;-62
2022/03/28 14:24:38;;;;;;;14.00;11.57;;;;;;;;;;5069886;28;20044;-63
2022/03/28 14:27:04;;;;;;;13.57;11.45;;;;;;;;;;5070001;28;20398;-62
2022/03/28 14:29:30;;;;;;;13.82;11.93;;;;;;;;;;5054060;28;20095;-62
2022/03/28 14:31:56;;;;;;;13.82;12.48;;;;;;;;;;5050867;28;20040;-63
2022/03/28 14:34:23;;;;;;;16.35;13.50;;;;;;;;;;5070008;28;20040;-62
2022/03/28 14:36:49;;;;;;;15.98;13.00;;;;;;;;;;5069850;28;20435;-62